Time;durP1;ratioP1;P1;durP2;ratioP2;P2;SDS_P1;SDS_P2;PMS_P1;PMS_P2;Temp;Humidity;BMP_temperature;BMP_pressure;BME280_temperature;BME280_humidity;BME280_pressure;Samples;Min_cycle;Max_cycle;Signal;HPM_P1;HPM_P2
2022/06/20 00:00:39;;;;;;;4.40;2.92;;;;;;;;;;6096450;23;20423;-81
2022/06/20 00:03:06;;;;;;;4.32;2.70;;;;;;;;;;6096478;23;20430;-81
2022/06/20 00:05:34;;;;;;;4.45;3.03;;;;;;;;;;6096276;23;20003;-81
2022/06/20 00:08:00;;;;;;;3.08;2.45;;;;;;;;;;6096415;23;20038;-81
2022/06/20 00:10:28;;;;;;;2.95;2.53;;;;;;;;;;6096174;23;20057;-81
2022/06/20 00:12:54;;;;;;;2.70;2.17;;;;;;;;;;6096427;23;19998;-80
2022/06/20 00:15:31;;;;;;;2.45;2.25;;;;;;;;;;6096135;23;20434;-81
2022/06/20 00:17:58;;;;;;;3.72;2.95;;;;;;;;;;6096172;23;20018;-81
2022/06/20 00:20:27;;;;;;;3.65;2.97;;;;;;;;;;6096146;23;20002;-81
2022/06/20 00:22:54;;;;;;;3.35;2.80;;;;;;;;;;6096427;23;20057;-81
2022/06/20 00:25:20;;;;;;;3.60;2.75;;;;;;;;;;6096135;23;20431;-81
2022/06/20 00:27:46;;;;;;;2.72;2.30;;;;;;;;;;6070853;23;20018;-81
2022/06/20 00:30:14;;;;;;;4.15;2.63;;;;;;;;;;6096204;23;20010;-82
2022/06/20 00:32:40;;;;;;;3.35;2.65;;;;;;;;;;6096529;23;20443;-82
2022/06/20 00:35:06;;;;;;;4.07;2.78;;;;;;;;;;6095984;23;20427;-82
2022/06/20 00:37:32;;;;;;;3.38;2.58;;;;;;;;;;6096228;23;20078;-81
2022/06/20 00:39:59;;;;;;;4.47;2.60;;;;;;;;;;6096319;23;20003;-81
2022/06/20 00:42:25;;;;;;;3.13;2.80;;;;;;;;;;6096138;23;20422;-81
2022/06/20 00:44:55;;;;;;;4.28;2.97;;;;;;;;;;6096250;23;20003;-81
2022/06/20 00:47:24;;;;;;;4.60;2.88;;;;;;;;;;6096191;23;20013;-81
2022/06/20 00:49:53;;;;;;;3.13;2.30;;;;;;;;;;6096266;23;20423;-81
2022/06/20 00:52:23;;;;;;;3.13;2.50;;;;;;;;;;6096014;23;20027;-82
2022/06/20 00:54:55;;;;;;;3.75;2.83;;;;;;;;;;6096263;23;20057;-82
2022/06/20 00:57:41;;;;;;;3.40;2.70;;;;;;;;;;6096143;23;19998;-82
2022/06/20 01:00:15;;;;;;;3.03;2.47;;;;;;;;;;6095973;23;20025;-81
2022/06/20 01:02:46;;;;;;;3.90;3.60;;;;;;;;;;6096010;23;20003;-81
2022/06/20 01:05:12;;;;;;;3.92;3.10;;;;;;;;;;6096326;23;20513;-81
2022/06/20 01:07:43;;;;;;;3.20;2.90;;;;;;;;;;6095993;23;20335;-82
2022/06/20 01:10:11;;;;;;;3.20;2.80;;;;;;;;;;6096180;23;20003;-81
2022/06/20 01:12:43;;;;;;;3.08;2.75;;;;;;;;;;6096778;23;20028;-81
2022/06/20 01:15:35;;;;;;;3.83;2.90;;;;;;;;;;6098031;23;19998;-81
2022/06/20 01:18:03;;;;;;;3.35;3.05;;;;;;;;;;6036899;23;20023;-81
2022/06/20 01:20:34;;;;;;;3.08;2.78;;;;;;;;;;6040437;23;20380;-81
2022/06/20 01:23:12;;;;;;;4.63;3.10;;;;;;;;;;6040491;23;20066;-81
2022/06/20 01:25:38;;;;;;;3.80;2.72;;;;;;;;;;6040567;23;20070;-81
2022/06/20 01:28:06;;;;;;;3.72;3.00;;;;;;;;;;6040270;23;20327;-81
2022/06/20 01:30:35;;;;;;;3.30;2.55;;;;;;;;;;6040514;23;20027;-81
2022/06/20 01:33:01;;;;;;;3.55;2.60;;;;;;;;;;6040204;23;20332;-81
2022/06/20 01:38:14;;;;;;;2.95;2.75;;;;;;;;;;6040502;23;20031;-81
2022/06/20 01:42:18;;;;;;;3.58;2.78;;;;;;;;;;6040273;23;20011;-81
2022/06/20 01:43:28;;;;;;;3.00;2.80;;;;;;;;;;6040069;23;20448;-81
2022/06/20 01:45:58;;;;;;;3.67;2.92;;;;;;;;;;6040300;23;20428;-81
2022/06/20 01:48:26;;;;;;;3.40;2.75;;;;;;;;;;6038441;23;20007;-80
2022/06/20 01:50:53;;;;;;;3.30;3.00;;;;;;;;;;6040233;23;20344;-81
2022/06/20 01:53:20;;;;;;;3.47;3.00;;;;;;;;;;6038543;23;20079;-81
2022/06/20 01:55:47;;;;;;;4.60;3.20;;;;;;;;;;6040187;23;20431;-81
2022/06/20 01:58:23;;;;;;;4.22;3.00;;;;;;;;;;6040172;23;20059;-81
2022/06/20 02:00:51;;;;;;;3.85;3.15;;;;;;;;;;6040281;23;20055;-81
2022/06/20 02:03:19;;;;;;;3.30;3.00;;;;;;;;;;6039886;23;20007;-81
2022/06/20 02:05:46;;;;;;;3.20;2.90;;;;;;;;;;6040149;23;20011;-82
2022/06/20 02:08:14;;;;;;;3.38;3.08;;;;;;;;;;6040409;23;20009;-81
2022/06/20 02:10:53;;;;;;;3.30;3.00;;;;;;;;;;6040187;23;20008;-81
2022/06/20 02:13:19;;;;;;;3.35;3.03;;;;;;;;;;6039901;23;20336;-81
2022/06/20 02:15:47;;;;;;;2.65;2.40;;;;;;;;;;6043937;23;20062;-81
2022/06/20 02:18:14;;;;;;;3.58;3.13;;;;;;;;;;6097252;23;20078;-81
2022/06/20 02:20:51;;;;;;;4.60;3.55;;;;;;;;;;6097498;23;20375;-81
2022/06/20 02:23:19;;;;;;;4.40;3.33;;;;;;;;;;6097164;23;20003;-81
2022/06/20 02:25:47;;;;;;;4.13;2.88;;;;;;;;;;6097031;23;20422;-81
2022/06/20 02:28:17;;;;;;;4.95;3.20;;;;;;;;;;6097246;23;20006;-81
2022/06/20 02:30:43;;;;;;;3.35;2.85;;;;;;;;;;6097448;23;20010;-81
2022/06/20 02:33:15;;;;;;;4.15;3.10;;;;;;;;;;6097116;23;20006;-81
2022/06/20 02:35:42;;;;;;;3.47;3.00;;;;;;;;;;6097168;23;20006;-81
2022/06/20 02:38:08;;;;;;;4.80;3.08;;;;;;;;;;6097120;23;20320;-81
2022/06/20 02:40:35;;;;;;;3.83;2.88;;;;;;;;;;6097244;23;20490;-81
2022/06/20 02:43:05;;;;;;;3.05;2.78;;;;;;;;;;6071548;23;20009;-81
2022/06/20 02:45:32;;;;;;;4.85;3.35;;;;;;;;;;6097269;23;20431;-81
2022/06/20 02:47:59;;;;;;;3.50;3.20;;;;;;;;;;6096906;23;20421;-81
2022/06/20 02:50:28;;;;;;;3.97;2.85;;;;;;;;;;6071606;23;20315;-81
2022/06/20 02:53:03;;;;;;;3.47;3.00;;;;;;;;;;6096927;23;20002;-81
2022/06/20 02:55:31;;;;;;;3.22;2.72;;;;;;;;;;6097085;23;20077;-81
2022/06/20 02:57:58;;;;;;;3.70;2.70;;;;;;;;;;6071436;23;20347;-81
2022/06/20 03:00:34;;;;;;;4.40;2.90;;;;;;;;;;6097150;23;19998;-81
2022/06/20 03:03:02;;;;;;;6.68;3.25;;;;;;;;;;6096888;23;20025;-81
2022/06/20 03:05:28;;;;;;;3.47;2.70;;;;;;;;;;6096846;23;20010;-81
2022/06/20 03:07:55;;;;;;;4.38;3.42;;;;;;;;;;6096615;23;20041;-81
2022/06/20 03:10:24;;;;;;;4.95;3.17;;;;;;;;;;6096984;23;20081;-81
2022/06/20 03:12:51;;;;;;;5.93;3.35;;;;;;;;;;6096773;23;20022;-81
2022/06/20 03:15:18;;;;;;;5.55;4.20;;;;;;;;;;6096854;23;20013;-81
2022/06/20 03:17:45;;;;;;;6.53;3.35;;;;;;;;;;6096644;23;20014;-81
2022/06/20 03:20:13;;;;;;;4.90;3.70;;;;;;;;;;6096912;23;20531;-81
2022/06/20 03:22:53;;;;;;;5.78;4.05;;;;;;;;;;6096623;23;20460;-82
2022/06/20 03:25:20;;;;;;;5.10;3.70;;;;;;;;;;6096688;23;20002;-81
2022/06/20 03:27:48;;;;;;;5.13;3.78;;;;;;;;;;6096853;23;20006;-81
2022/06/20 03:30:21;;;;;;;6.35;3.75;;;;;;;;;;6096654;23;20446;-81
2022/06/20 03:32:47;;;;;;;5.50;3.30;;;;;;;;;;6096952;23;20009;-81
2022/06/20 03:35:13;;;;;;;4.75;3.35;;;;;;;;;;6096284;23;20018;-81
2022/06/20 03:37:39;;;;;;;5.82;3.58;;;;;;;;;;6071072;23;20342;-81
2022/06/20 03:40:08;;;;;;;3.92;3.33;;;;;;;;;;6096595;23;19995;-82
2022/06/20 03:42:34;;;;;;;4.97;3.28;;;;;;;;;;6096450;23;20431;-81
2022/06/20 03:45:02;;;;;;;8.70;7.78;;;;;;;;;;6096637;23;20006;-81
2022/06/20 03:47:41;;;;;;;5.30;4.45;;;;;;;;;;6096313;23;20469;-81
2022/06/20 03:50:26;;;;;;;7.70;5.60;;;;;;;;;;6096426;23;20458;-82
2022/06/20 03:53:02;;;;;;;5.13;3.50;;;;;;;;;;6096505;23;20054;-81
2022/06/20 03:55:30;;;;;;;3.85;2.97;;;;;;;;;;6096519;23;20331;-86
2022/06/20 03:58:00;;;;;;;4.55;3.10;;;;;;;;;;6096908;23;20026;-88
2022/06/20 04:00:36;;;;;;;3.42;2.95;;;;;;;;;;6096831;23;20002;-87
2022/06/20 04:03:02;;;;;;;4.93;3.10;;;;;;;;;;6096869;23;20009;-86
2022/06/20 04:05:49;;;;;;;3.97;2.88;;;;;;;;;;6096834;23;19999;-89
2022/06/20 04:08:16;;;;;;;11.05;8.55;;;;;;;;;;6096231;23;20006;-83
2022/06/20 04:11:03;;;;;;;3.38;3.08;;;;;;;;;;6096617;23;20013;-86
2022/06/20 04:13:40;;;;;;;4.78;3.22;;;;;;;;;;6096956;23;20070;-92
2022/06/20 04:16:06;;;;;;;4.30;3.33;;;;;;;;;;6096627;23;20022;-90
2022/06/20 04:18:38;;;;;;;3.95;3.55;;;;;;;;;;6096758;23;20002;-84
2022/06/20 04:21:09;;;;;;;4.10;3.22;;;;;;;;;;6096338;23;20002;-86
2022/06/20 04:24:02;;;;;;;3.75;3.28;;;;;;;;;;6071839;23;20017;-88
2022/06/20 04:26:28;;;;;;;17.15;13.02;;;;;;;;;;6042461;23;20010;-85
2022/06/20 04:29:01;;;;;;;9.18;6.95;;;;;;;;;;6097132;23;20343;-80
2022/06/20 04:31:40;;;;;;;4.22;3.28;;;;;;;;;;6097266;23;20002;-87
2022/06/20 04:34:12;;;;;;;5.97;3.90;;;;;;;;;;6099270;23;20367;-83
2022/06/20 04:36:57;;;;;;;14.40;12.75;;;;;;;;;;6097727;23;20010;-88
2022/06/20 04:39:23;;;;;;;6.97;4.00;;;;;;;;;;6096894;23;20061;-88
2022/06/20 04:41:51;;;;;;;25.00;16.88;;;;;;;;;;6097403;23;20073;-83
2022/06/20 04:44:28;;;;;;;7.32;6.53;;;;;;;;;;6096952;23;19999;-86
2022/06/20 04:47:03;;;;;;;8.30;7.00;;;;;;;;;;6096930;23;20030;-87
2022/06/20 04:49:32;;;;;;;4.78;4.32;;;;;;;;;;6099253;23;20006;-84
2022/06/20 04:51:58;;;;;;;4.15;3.00;;;;;;;;;;6098876;23;20454;-83
2022/06/20 04:54:24;;;;;;;7.70;3.97;;;;;;;;;;6099379;23;20434;-86
2022/06/20 04:56:52;;;;;;;3.83;3.53;;;;;;;;;;6074492;23;20007;-84
2022/06/20 04:59:22;;;;;;;4.32;3.55;;;;;;;;;;6098955;23;20002;-87
2022/06/20 05:01:50;;;;;;;9.27;6.43;;;;;;;;;;6098124;23;20435;-85
2022/06/20 05:04:19;;;;;;;3.60;3.05;;;;;;;;;;6098990;23;20025;-85
2022/06/20 05:06:45;;;;;;;4.28;2.80;;;;;;;;;;6099541;23;20006;-87
2022/06/20 05:09:15;;;;;;;3.70;3.00;;;;;;;;;;6098405;23;20006;-89
2022/06/20 05:11:44;;;;;;;3.25;2.50;;;;;;;;;;6098175;23;20419;-88
2022/06/20 05:14:24;;;;;;;3.35;2.60;;;;;;;;;;6100402;23;20002;-82
2022/06/20 05:16:51;;;;;;;3.30;2.67;;;;;;;;;;6098850;23;20018;-86
2022/06/20 05:19:38;;;;;;;7.22;6.10;;;;;;;;;;6098633;23;20009;-92
2022/06/20 05:22:15;;;;;;;9.93;5.63;;;;;;;;;;6097920;23;20002;-81
2022/06/20 05:24:44;;;;;;;3.78;3.35;;;;;;;;;;6095992;23;20013;-82
2022/06/20 05:27:15;;;;;;;4.78;3.20;;;;;;;;;;6093209;23;20011;-84
2022/06/20 05:29:43;;;;;;;3.03;2.83;;;;;;;;;;6071361;23;20013;-85
2022/06/20 05:32:12;;;;;;;11.88;10.75;;;;;;;;;;6097118;23;20032;-85
2022/06/20 05:35:02;;;;;;;4.05;3.35;;;;;;;;;;6095130;23;20367;-85
2022/06/20 05:37:32;;;;;;;5.78;4.45;;;;;;;;;;6080346;23;20395;-84
2022/06/20 05:40:20;;;;;;;7.90;5.82;;;;;;;;;;6094615;23;20006;-84
2022/06/20 05:42:46;;;;;;;9.48;8.52;;;;;;;;;;6069531;23;20010;-84
2022/06/20 05:45:19;;;;;;;15.77;6.47;;;;;;;;;;6095585;23;20061;-86
2022/06/20 05:48:14;;;;;;;11.33;5.23;;;;;;;;;;6069710;23;20335;-87
2022/06/20 05:50:46;;;;;;;12.48;9.75;;;;;;;;;;6096253;23;20003;-88
2022/06/20 05:53:24;;;;;;;12.43;10.93;;;;;;;;;;6095125;23;20006;-85
2022/06/20 05:55:55;;;;;;;24.52;21.98;;;;;;;;;;6070804;23;20006;-85
2022/06/20 05:58:42;;;;;;;;;;;;;;;;;;;;;
2022/06/20 06:01:13;;;;;;;14.63;13.15;;;;;;;;;;6095799;23;20094;-86
2022/06/20 06:03:49;;;;;;;10.48;8.25;;;;;;;;;;6095844;23;20407;-86
2022/06/20 06:06:22;;;;;;;52.15;9.98;;;;;;;;;;6070316;23;20021;-83
2022/06/20 06:09:07;;;;;;;10.55;7.15;;;;;;;;;;6068553;23;20010;-84
2022/06/20 06:11:33;;;;;;;7.45;6.45;;;;;;;;;;6096744;23;19998;-87
2022/06/20 06:13:59;;;;;;;9.80;6.80;;;;;;;;;;6095910;23;20065;-84
2022/06/20 06:16:53;;;;;;;5.68;4.15;;;;;;;;;;6094216;23;20093;-85
2022/06/20 06:19:19;;;;;;;13.15;7.55;;;;;;;;;;6095921;23;20335;-86
2022/06/20 06:21:47;;;;;;;9.73;6.95;;;;;;;;;;6070387;23;20146;-84
2022/06/20 06:24:18;;;;;;;10.15;7.22;;;;;;;;;;6096740;23;20029;-87
2022/06/20 06:26:45;;;;;;;8.50;6.05;;;;;;;;;;6095809;23;20058;-87
2022/06/20 06:29:23;;;;;;;5.97;4.60;;;;;;;;;;6094984;23;20008;-84
2022/06/20 06:31:51;;;;;;;8.98;3.47;;;;;;;;;;6096091;23;20006;-89
2022/06/20 06:34:23;;;;;;;7.38;4.13;;;;;;;;;;6046796;23;20077;-85
2022/06/20 06:37:10;;;;;;;29.30;17.40;;;;;;;;;;6095587;23;20078;-84
2022/06/20 06:39:57;;;;;;;20.83;13.60;;;;;;;;;;6095169;23;19998;-85
2022/06/20 06:42:23;;;;;;;14.48;8.77;;;;;;;;;;6071341;23;20014;-86
2022/06/20 06:44:51;;;;;;;17.23;8.75;;;;;;;;;;6071243;23;20003;-85
2022/06/20 06:47:20;;;;;;;12.43;7.82;;;;;;;;;;6095077;23;20129;-87
2022/06/20 06:49:56;;;;;;;8.25;5.68;;;;;;;;;;6070582;23;20009;-89
2022/06/20 06:52:49;;;;;;;7.13;4.38;;;;;;;;;;6094955;23;20030;-85
2022/06/20 06:55:15;;;;;;;14.60;7.95;;;;;;;;;;6068885;23;20346;-86
2022/06/20 06:57:50;;;;;;;135.55;50.83;;;;;;;;;;6069788;23;20003;-85
2022/06/20 07:00:20;;;;;;;128.27;47.30;;;;;;;;;;6094995;23;20003;-83
2022/06/20 07:02:51;;;;;;;119.63;44.50;;;;;;;;;;6069988;23;20002;-86
2022/06/20 07:05:30;;;;;;;75.95;27.42;;;;;;;;;;6068932;23;20013;-87
2022/06/20 07:07:59;;;;;;;8.10;4.60;;;;;;;;;;6069633;23;20014;-87
2022/06/20 07:10:38;;;;;;;48.67;17.10;;;;;;;;;;6069011;23;20014;-83
2022/06/20 07:13:11;;;;;;;139.27;52.78;;;;;;;;;;6094860;23;20010;-85
2022/06/20 07:15:38;;;;;;;140.25;55.05;;;;;;;;;;6069294;23;20438;-84
2022/06/20 07:18:06;;;;;;;69.28;25.08;;;;;;;;;;6069296;23;20042;-82
2022/06/20 07:20:34;;;;;;;24.35;9.48;;;;;;;;;;6069817;23;20029;-86
2022/06/20 07:23:02;;;;;;;64.00;23.83;;;;;;;;;;6094794;23;20069;-85
2022/06/20 07:25:35;;;;;;;68.05;25.80;;;;;;;;;;6069133;23;20015;-85
2022/06/20 07:28:04;;;;;;;35.78;13.77;;;;;;;;;;6069783;23;20018;-85
2022/06/20 07:30:35;;;;;;;36.33;16.20;;;;;;;;;;6095299;23;20006;-88
2022/06/20 07:33:06;;;;;;;15.93;7.38;;;;;;;;;;6094865;23;20002;-84
2022/06/20 07:35:37;;;;;;;12.55;5.75;;;;;;;;;;6094352;23;20014;-86
2022/06/20 07:38:07;;;;;;;14.68;9.13;;;;;;;;;;6095372;23;20316;-84
2022/06/20 07:41:03;;;;;;;6.22;3.88;;;;;;;;;;6094855;23;20006;-84
2022/06/20 07:43:48;;;;;;;6.70;6.03;;;;;;;;;;6093430;23;20030;-86
2022/06/20 07:46:19;;;;;;;15.48;12.38;;;;;;;;;;6095127;23;20665;-84
2022/06/20 07:48:46;;;;;;;13.10;11.80;;;;;;;;;;6095160;23;20009;-83
2022/06/20 07:51:38;;;;;;;12.55;11.27;;;;;;;;;;6094973;23;20014;-86
2022/06/20 07:54:10;;;;;;;7.40;6.47;;;;;;;;;;6026405;23;20134;-88
2022/06/20 07:56:37;;;;;;;4.68;4.22;;;;;;;;;;6095081;23;20007;-84
2022/06/20 07:59:22;;;;;;;4.30;3.70;;;;;;;;;;6095239;23;20422;-84
2022/06/20 08:01:58;;;;;;;5.43;3.15;;;;;;;;;;6094623;23;20435;-88
2022/06/20 08:04:29;;;;;;;3.47;2.70;;;;;;;;;;6068809;23;20009;-83
2022/06/20 08:06:58;;;;;;;2.05;1.80;;;;;;;;;;6094052;23;20037;-82
2022/06/20 08:09:29;;;;;;;4.15;2.15;;;;;;;;;;6094055;23;20085;-86
2022/06/20 08:12:00;;;;;;;2.22;2.00;;;;;;;;;;6094454;23;20034;-86
2022/06/20 08:14:38;;;;;;;3.15;2.13;;;;;;;;;;6093681;23;20002;-82
2022/06/20 08:17:08;;;;;;;4.30;1.98;;;;;;;;;;6094061;23;20053;-83
2022/06/20 08:19:35;;;;;;;51.17;19.27;;;;;;;;;;6094539;23;20010;-83
2022/06/20 08:22:10;;;;;;;84.55;30.00;;;;;;;;;;6094409;23;20085;-84
2022/06/20 08:24:40;;;;;;;6.57;3.60;;;;;;;;;;6094412;23;20022;-84
2022/06/20 08:27:08;;;;;;;17.20;5.82;;;;;;;;;;6068873;23;20439;-84
2022/06/20 08:29:37;;;;;;;6.47;2.60;;;;;;;;;;6094564;23;20033;-83
2022/06/20 08:32:07;;;;;;;7.65;2.65;;;;;;;;;;6094177;23;20010;-85
2022/06/20 08:34:36;;;;;;;6.95;3.38;;;;;;;;;;6094333;23;20093;-84
2022/06/20 08:37:21;;;;;;;3.08;2.00;;;;;;;;;;6070261;23;20021;-83
2022/06/20 08:40:08;;;;;;;3.00;1.70;;;;;;;;;;6095263;23;20014;-84
2022/06/20 08:42:52;;;;;;;6.43;3.40;;;;;;;;;;6069523;23;20014;-81
2022/06/20 08:45:28;;;;;;;3.85;3.35;;;;;;;;;;6094025;23;20090;-83
2022/06/20 08:48:06;;;;;;;6.13;3.30;;;;;;;;;;6068576;23;20324;-84
2022/06/20 08:50:46;;;;;;;6.93;2.70;;;;;;;;;;6070082;23;20344;-85
2022/06/20 08:53:31;;;;;;;3.60;1.80;;;;;;;;;;6094490;23;20058;-82
2022/06/20 08:55:58;;;;;;;3.60;2.38;;;;;;;;;;6094287;23;20065;-80
2022/06/20 08:58:38;;;;;;;3.65;2.42;;;;;;;;;;6094511;23;19998;-81
2022/06/20 09:01:15;;;;;;;3.10;2.55;;;;;;;;;;6094001;23;20013;-78
2022/06/20 09:03:59;;;;;;;2.35;2.00;;;;;;;;;;6094817;23;20136;-81
2022/06/20 09:06:28;;;;;;;5.07;3.50;;;;;;;;;;6068937;23;20057;-80
2022/06/20 09:09:00;;;;;;;3.05;2.17;;;;;;;;;;6067635;23;20003;-83
2022/06/20 09:11:45;;;;;;;2.05;1.85;;;;;;;;;;6094061;23;20010;-84
2022/06/20 09:14:11;;;;;;;2.55;2.05;;;;;;;;;;6094483;23;20003;-78
2022/06/20 09:16:43;;;;;;;1.77;1.67;;;;;;;;;;6094791;23;20014;-83
2022/06/20 09:19:09;;;;;;;4.13;1.80;;;;;;;;;;6094484;23;20003;-81
2022/06/20 09:21:41;;;;;;;2.55;1.60;;;;;;;;;;6094332;23;20006;-84
2022/06/20 09:24:14;;;;;;;2.63;1.80;;;;;;;;;;6094432;23;20002;-80
2022/06/20 09:26:59;;;;;;;2.08;1.48;;;;;;;;;;6094242;23;20132;-86
2022/06/20 09:29:31;;;;;;;4.43;2.13;;;;;;;;;;6094037;23;20021;-84
2022/06/20 09:31:57;;;;;;;4.05;2.38;;;;;;;;;;6094198;23;20058;-82
2022/06/20 09:34:42;;;;;;;2.88;1.77;;;;;;;;;;6095322;23;20033;-84
2022/06/20 09:37:27;;;;;;;2.85;1.70;;;;;;;;;;6070333;23;20014;-84
2022/06/20 09:39:55;;;;;;;2.97;1.92;;;;;;;;;;6096549;23;20442;-85
2022/06/20 09:42:40;;;;;;;4.38;2.70;;;;;;;;;;6069930;23;20351;-87
2022/06/20 09:45:24;;;;;;;103.90;37.90;;;;;;;;;;6069217;23;20444;-85
2022/06/20 09:48:01;;;;;;;115.53;43.97;;;;;;;;;;6070466;23;20010;-86
2022/06/20 09:50:27;;;;;;;172.40;65.60;;;;;;;;;;6095604;23;20013;-84
2022/06/20 09:53:18;;;;;;;254.85;98.95;;;;;;;;;;6070241;23;20040;-89
2022/06/20 09:55:44;;;;;;;217.13;87.57;;;;;;;;;;6069976;23;20477;-83
2022/06/20 09:58:10;;;;;;;133.98;52.70;;;;;;;;;;6068731;23;20055;-83
2022/06/20 10:00:36;;;;;;;77.80;30.38;;;;;;;;;;6095764;23;20001;-80
2022/06/20 10:03:02;;;;;;;44.63;18.98;;;;;;;;;;6095791;23;19999;-81
2022/06/20 10:05:39;;;;;;;23.35;11.23;;;;;;;;;;6071073;23;20768;-82
2022/06/20 10:08:08;;;;;;;17.23;7.68;;;;;;;;;;6070740;23;20077;-79
2022/06/20 10:10:55;;;;;;;9.25;5.97;;;;;;;;;;6096237;23;20014;-90
2022/06/20 10:16:18;;;;;;;8.82;3.92;;;;;;;;;;6095091;23;20113;-81
2022/06/20 10:19:04;;;;;;;115.85;48.42;;;;;;;;;;6095995;23;20006;-85
2022/06/20 10:21:30;;;;;;;13.05;6.93;;;;;;;;;;6070209;23;20002;-85
2022/06/20 10:24:02;;;;;;;13.02;6.47;;;;;;;;;;6069674;23;20085;-83
2022/06/20 10:26:37;;;;;;;99.78;40.63;;;;;;;;;;6069631;23;20010;-85
2022/06/20 10:29:09;;;;;;;102.70;42.33;;;;;;;;;;6094483;23;20002;-82
2022/06/20 10:31:48;;;;;;;19.67;8.82;;;;;;;;;;6070012;23;20081;-84
2022/06/20 10:34:21;;;;;;;49.88;21.25;;;;;;;;;;6095423;23;20003;-81
2022/06/20 10:36:52;;;;;;;27.70;13.83;;;;;;;;;;6095312;23;20014;-84
2022/06/20 10:39:37;;;;;;;19.25;9.25;;;;;;;;;;6095329;23;20033;-81
2022/06/20 10:42:06;;;;;;;11.05;5.95;;;;;;;;;;6095047;23;20060;-81
2022/06/20 10:44:35;;;;;;;3.55;2.00;;;;;;;;;;6094987;23;20469;-81
2022/06/20 10:47:27;;;;;;;3.78;2.22;;;;;;;;;;6095411;23;20006;-80
2022/06/20 10:49:56;;;;;;;5.32;3.22;;;;;;;;;;6041045;23;20015;-78
2022/06/20 10:52:32;;;;;;;10.30;4.97;;;;;;;;;;6095569;23;20730;-82
2022/06/20 10:55:07;;;;;;;5.00;2.40;;;;;;;;;;6095131;23;20010;-79
2022/06/20 10:57:52;;;;;;;8.57;3.90;;;;;;;;;;6095391;23;20339;-82
2022/06/20 11:00:20;;;;;;;4.35;2.90;;;;;;;;;;6095043;23;20002;-84
2022/06/20 11:02:49;;;;;;;4.70;1.98;;;;;;;;;;6069186;23;20037;-83
2022/06/20 11:05:34;;;;;;;4.03;2.55;;;;;;;;;;6094697;23;20010;-84
2022/06/20 11:08:17;;;;;;;5.20;2.17;;;;;;;;;;6095591;23;20030;-83
2022/06/20 11:10:50;;;;;;;3.73;2.20;;;;;;;;;;6094977;23;20034;-85
2022/06/20 11:13:26;;;;;;;7.05;4.13;;;;;;;;;;6095530;23;20014;-84
2022/06/20 11:16:11;;;;;;;62.75;28.50;;;;;;;;;;6069966;23;20038;-84
2022/06/20 11:18:56;;;;;;;62.17;25.95;;;;;;;;;;6069999;23;20028;-84
2022/06/20 11:21:41;;;;;;;23.70;10.95;;;;;;;;;;6070486;23;20057;-80
2022/06/20 11:24:11;;;;;;;8.15;3.83;;;;;;;;;;6095223;23;20027;-86
2022/06/20 11:27:00;;;;;;;22.83;9.40;;;;;;;;;;6094526;23;20454;-83
2022/06/20 11:29:36;;;;;;;26.48;11.70;;;;;;;;;;6028774;23;20011;-88
2022/06/20 11:32:11;;;;;;;9.10;4.72;;;;;;;;;;6094194;23;20422;-86
2022/06/20 11:34:40;;;;;;;5.85;2.95;;;;;;;;;;6069892;23;20006;-82
2022/06/20 11:37:15;;;;;;;9.75;5.15;;;;;;;;;;6095160;23;20065;-81
2022/06/20 11:39:41;;;;;;;9.10;3.83;;;;;;;;;;6095109;23;20406;-82
2022/06/20 11:42:13;;;;;;;6.93;4.13;;;;;;;;;;6096277;23;20006;-85
2022/06/20 11:44:39;;;;;;;8.02;3.85;;;;;;;;;;6096110;23;20073;-84
2022/06/20 11:47:24;;;;;;;6.05;3.58;;;;;;;;;;6070995;23;20003;-86
2022/06/20 11:49:55;;;;;;;3.67;2.75;;;;;;;;;;6070502;23;20010;-84
2022/06/20 11:52:28;;;;;;;7.85;4.68;;;;;;;;;;6096261;23;20312;-85
2022/06/20 11:54:57;;;;;;;23.53;12.17;;;;;;;;;;6095188;23;20065;-84
2022/06/20 11:57:41;;;;;;;4.30;2.90;;;;;;;;;;6096123;23;20240;-80
2022/06/20 12:00:09;;;;;;;;;;;;;;;;;;6096578;23;20003;-84
2022/06/20 12:02:55;;;;;;;3.25;2.72;;;;;;;;;;6069949;23;19901;-83
2022/06/20 12:05:40;;;;;;;3.65;2.60;;;;;;;;;;6070952;23;20014;-83
2022/06/20 12:08:15;;;;;;;5.82;2.83;;;;;;;;;;6095630;23;20002;-81
2022/06/20 12:10:44;;;;;;;4.22;2.15;;;;;;;;;;6096063;23;20010;-84
2022/06/20 12:13:20;;;;;;;4.05;2.20;;;;;;;;;;6096147;23;20002;-84
2022/06/20 12:16:06;;;;;;;6.53;3.05;;;;;;;;;;6095864;23;20002;-80
2022/06/20 12:24:32;;;;;;;3.50;2.17;;;;;;;;;;6095793;23;20025;-79
2022/06/20 12:27:01;;;;;;;4.93;2.65;;;;;;;;;;6095770;23;20002;-84
2022/06/20 12:29:29;;;;;;;2.97;2.30;;;;;;;;;;6096388;23;19998;-82
2022/06/20 12:31:57;;;;;;;10.70;3.00;;;;;;;;;;6095463;23;20002;-82
2022/06/20 12:34:23;;;;;;;3.78;2.85;;;;;;;;;;6096198;23;19999;-80
2022/06/20 12:37:07;;;;;;;2.60;2.00;;;;;;;;;;6096102;23;20434;-80
2022/06/20 12:39:46;;;;;;;4.28;2.50;;;;;;;;;;6095866;23;20018;-82
2022/06/20 12:42:35;;;;;;;3.63;2.30;;;;;;;;;;6069752;23;20013;-79
2022/06/20 12:45:01;;;;;;;4.65;2.40;;;;;;;;;;6094922;23;20427;-80
2022/06/20 12:47:27;;;;;;;3.55;2.20;;;;;;;;;;6096002;23;19999;-84
2022/06/20 12:49:53;;;;;;;7.78;6.90;;;;;;;;;;6069993;23;20002;-81
2022/06/20 12:52:26;;;;;;;3.60;2.58;;;;;;;;;;6095496;23;20002;-80
2022/06/20 12:55:04;;;;;;;3.30;2.13;;;;;;;;;;6095524;23;20338;-83
2022/06/20 12:57:40;;;;;;;3.85;2.33;;;;;;;;;;6096066;23;20094;-81
2022/06/20 13:00:26;;;;;;;5.88;4.18;;;;;;;;;;6095254;23;20006;-82
2022/06/20 13:03:05;;;;;;;11.13;8.18;;;;;;;;;;6094259;23;20158;-82
2022/06/20 13:05:48;;;;;;;3.60;2.60;;;;;;;;;;6094804;23;20006;-79
2022/06/20 13:08:23;;;;;;;46.87;43.07;;;;;;;;;;6095483;23;20014;-82
2022/06/20 13:10:52;;;;;;;12.15;11.05;;;;;;;;;;6097531;23;20010;-81
2022/06/20 13:13:18;;;;;;;2.97;2.10;;;;;;;;;;6097988;23;20010;-83
2022/06/20 13:15:52;;;;;;;4.07;2.53;;;;;;;;;;6097325;23;20003;-81
2022/06/20 13:18:22;;;;;;;3.67;2.50;;;;;;;;;;6097963;23;20448;-83
2022/06/20 13:21:06;;;;;;;2.67;2.10;;;;;;;;;;6097881;23;20442;-79
2022/06/20 13:23:44;;;;;;;2.70;2.17;;;;;;;;;;6098058;23;20127;-82
2022/06/20 13:26:10;;;;;;;3.55;2.15;;;;;;;;;;6097448;23;20060;-77
2022/06/20 13:28:38;;;;;;;4.05;2.42;;;;;;;;;;6098049;23;19999;-83
2022/06/20 13:31:10;;;;;;;4.00;2.38;;;;;;;;;;6097283;23;20002;-80
2022/06/20 13:33:47;;;;;;;3.78;2.85;;;;;;;;;;6072302;23;20038;-81
2022/06/20 13:36:19;;;;;;;2.53;2.20;;;;;;;;;;6097135;23;20410;-79
2022/06/20 13:38:50;;;;;;;2.53;2.33;;;;;;;;;;6097424;23;20430;-81
2022/06/20 13:41:19;;;;;;;5.03;2.72;;;;;;;;;;6097838;23;20453;-81
2022/06/20 13:44:05;;;;;;;2.42;2.05;;;;;;;;;;6097921;23;20002;-81
2022/06/20 13:46:35;;;;;;;3.83;2.50;;;;;;;;;;6073367;23;20010;-78
2022/06/20 13:49:06;;;;;;;2.75;2.10;;;;;;;;;;6071854;23;20373;-80
2022/06/20 13:51:53;;;;;;;2.70;2.05;;;;;;;;;;6097374;23;20050;-78
2022/06/20 13:54:22;;;;;;;2.58;2.38;;;;;;;;;;6097291;23;20002;-79
2022/06/20 13:56:58;;;;;;;3.30;2.55;;;;;;;;;;6097420;23;20026;-81
2022/06/20 13:59:39;;;;;;;5.10;2.72;;;;;;;;;;6097508;23;20379;-81
2022/06/20 14:02:24;;;;;;;2.33;2.00;;;;;;;;;;6097759;23;20006;-79
2022/06/20 14:04:50;;;;;;;3.47;2.42;;;;;;;;;;6097177;23;19998;-78
2022/06/20 14:07:24;;;;;;;5.57;2.75;;;;;;;;;;6097545;23;20010;-79
2022/06/20 14:09:53;;;;;;;2.15;1.95;;;;;;;;;;6097358;23;20435;-81
2022/06/20 14:12:24;;;;;;;4.22;2.47;;;;;;;;;;6097450;23;20009;-79
2022/06/20 14:14:52;;;;;;;6.47;5.88;;;;;;;;;;6097185;23;20009;-77
2022/06/20 14:17:23;;;;;;;3.05;2.40;;;;;;;;;;6096879;23;20021;-80
2022/06/20 14:19:49;;;;;;;3.00;2.30;;;;;;;;;;6097104;23;20034;-77
2022/06/20 14:22:34;;;;;;;4.75;2.55;;;;;;;;;;6097174;23;20065;-72
2022/06/20 14:25:07;;;;;;;2.53;2.33;;;;;;;;;;6097092;23;20111;-79
2022/06/20 14:27:33;;;;;;;3.28;2.33;;;;;;;;;;6097316;23;20090;-80
2022/06/20 14:30:05;;;;;;;3.13;2.65;;;;;;;;;;6096985;23;20439;-81
2022/06/20 14:32:44;;;;;;;2.30;2.10;;;;;;;;;;6097083;23;20014;-79
2022/06/20 14:35:29;;;;;;;4.65;2.80;;;;;;;;;;6071168;23;20007;-79
2022/06/20 14:38:07;;;;;;;2.72;2.28;;;;;;;;;;6071201;23;20010;-79
2022/06/20 14:40:33;;;;;;;2.97;2.40;;;;;;;;;;6096758;23;20074;-79
2022/06/20 14:43:02;;;;;;;2.55;2.30;;;;;;;;;;6097285;23;20010;-79
2022/06/20 14:45:36;;;;;;;3.20;2.50;;;;;;;;;;6096965;23;20065;-79
2022/06/20 14:48:11;;;;;;;3.78;2.70;;;;;;;;;;6096862;23;20327;-80
2022/06/20 14:50:46;;;;;;;3.55;2.30;;;;;;;;;;6096951;23;20073;-80
2022/06/20 14:53:15;;;;;;;2.85;2.33;;;;;;;;;;6096514;23;20006;-80
2022/06/20 14:55:49;;;;;;;3.22;2.47;;;;;;;;;;6096784;23;20010;-82
2022/06/20 14:58:41;;;;;;;3.33;3.00;;;;;;;;;;6096489;23;20461;-77
2022/06/20 15:01:18;;;;;;;4.28;2.70;;;;;;;;;;6071322;23;20026;-79
2022/06/20 15:04:04;;;;;;;5.00;2.67;;;;;;;;;;6096605;23;20002;-83
2022/06/20 15:06:30;;;;;;;3.20;2.25;;;;;;;;;;6096522;23;20457;-81
2022/06/20 15:08:59;;;;;;;2.70;2.50;;;;;;;;;;6096918;23;20505;-82
2022/06/20 15:14:23;;;;;;;3.83;2.50;;;;;;;;;;6096709;23;20015;-79
2022/06/20 15:17:09;;;;;;;4.50;2.85;;;;;;;;;;6096363;23;20011;-79
2022/06/20 15:19:51;;;;;;;3.45;2.88;;;;;;;;;;6072669;23;20007;-82
2022/06/20 15:22:17;;;;;;;3.03;2.72;;;;;;;;;;6096706;23;19998;-82
2022/06/20 15:24:47;;;;;;;4.28;2.45;;;;;;;;;;6096508;23;20008;-80
2022/06/20 15:27:20;;;;;;;4.20;3.80;;;;;;;;;;6096546;23;20030;-82